Sedbergh, United Kingdom
Current Conditions -  °F | °C
As of 5:50 AM on Friday 31 Oct 2014 (Local Time) from EGXE Reporting Station
Haze Haze  
Wind Chill: 14°   Ceiling: 22000
Heat Index: 14°   Visibility: 2mi
Dew Point: 13°   Wind: 14mph
Humidity: 94%   Direction: 150°SSE
Pressure: 29.88"   Gusts: NA
Location:  54.32°N, 2.53°W
Report Text: EGXE 310550Z AUTO 15012KT 3300 BR SCT050/// OVC220/// 14/13 Q1012
Loading
Personal Weather Stations






























Interactive Weather Map
Tropical Storm Tracking
New forecast layout! Learn more

10-Day Weather Forecast

Advertisements
Track Severe Weather on mobile